Time;durP1;ratioP1;P1;durP2;ratioP2;P2;SDS_P1;SDS_P2;PMS_P1;PMS_P2;Temp;Humidity;BMP_temperature;BMP_pressure;BME280_temperature;BME280_humidity;BME280_pressure;Samples;Min_cycle;Max_cycle;Signal;HPM_P1;HPM_P2
2023/05/13 00:01:07;;;;;;;12.15;9.25;;;11.30;99.90;;;;;;5003382;28;20048;-75
2023/05/13 00:03:33;;;;;;;13.35;9.77;;;11.20;99.90;;;;;;4962976;28;20116;-76
2023/05/13 00:05:59;;;;;;;13.00;9.48;;;11.20;99.90;;;;;;4993647;28;20095;-76
2023/05/13 00:08:25;;;;;;;13.10;9.20;;;11.10;99.90;;;;;;4958137;28;20050;-76
2023/05/13 00:10:50;;;;;;;12.18;9.15;;;11.20;99.90;;;;;;4982992;28;20041;-76
2023/05/13 00:13:16;;;;;;;11.48;8.85;;;11.10;99.90;;;;;;4973758;28;20042;-76
2023/05/13 00:15:41;;;;;;;11.35;9.70;;;11.10;99.90;;;;;;5005566;28;20071;-76
2023/05/13 00:18:07;;;;;;;12.20;9.65;;;11.10;99.90;;;;;;5002002;28;20121;-76
2023/05/13 00:20:33;;;;;;;12.10;9.77;;;11.00;99.90;;;;;;4978647;28;20110;-76
2023/05/13 00:22:59;;;;;;;12.80;9.73;;;11.00;99.90;;;;;;4957677;28;20042;-76
2023/05/13 00:25:24;;;;;;;12.43;9.98;;;11.10;99.90;;;;;;5003296;28;20038;-76
2023/05/13 00:27:51;;;;;;;11.52;9.95;;;11.00;99.90;;;;;;4997038;28;20125;-76
2023/05/13 00:30:16;;;;;;;11.80;10.13;;;10.90;99.90;;;;;;4960354;28;20058;-76
2023/05/13 00:32:42;;;;;;;13.13;9.95;;;10.90;99.90;;;;;;4992403;28;20069;-76
2023/05/13 00:35:08;;;;;;;16.25;10.73;;;10.90;99.90;;;;;;4975046;28;20046;-76
2023/05/13 00:37:34;;;;;;;12.80;10.63;;;10.90;99.90;;;;;;4992732;28;20547;-76
2023/05/13 00:40:00;;;;;;;11.63;9.25;;;10.80;99.90;;;;;;4990553;28;20127;-76
2023/05/13 00:42:26;;;;;;;10.68;9.55;;;10.80;99.90;;;;;;4965316;28;20048;-76
2023/05/13 00:44:51;;;;;;;13.85;9.95;;;10.80;99.90;;;;;;4975608;28;20815;-76
2023/05/13 00:47:17;;;;;;;11.48;10.25;;;10.80;99.90;;;;;;4966747;28;20101;-76
2023/05/13 00:49:43;;;;;;;13.88;10.45;;;10.80;99.90;;;;;;4998927;28;20172;-76
2023/05/13 00:52:09;;;;;;;13.57;10.40;;;10.70;99.90;;;;;;4961545;28;20122;-76
2023/05/13 00:54:35;;;;;;;17.40;10.07;;;10.70;99.90;;;;;;4976326;28;20041;-76
2023/05/13 00:57:00;;;;;;;12.45;9.98;;;10.70;99.90;;;;;;4956833;28;20113;-76
2023/05/13 00:59:28;;;;;;;16.27;10.35;;;10.70;99.90;;;;;;4979245;28;20117;-76
2023/05/13 01:02:20;;;;;;;13.43;9.70;;;10.60;99.90;;;;;;4982994;28;20030;-76
2023/05/13 01:04:58;;;;;;;17.43;10.97;;;10.60;99.90;;;;;;4947836;28;20572;-76
2023/05/13 01:07:56;;;;;;;13.18;10.18;;;10.60;99.90;;;;;;4994502;28;20030;-76
2023/05/13 01:10:30;;;;;;;12.50;9.43;;;10.60;99.90;;;;;;4995380;28;20121;-76
2023/05/13 01:13:02;;;;;;;11.70;9.77;;;10.50;99.90;;;;;;5005398;28;20056;-76
2023/05/13 01:15:30;;;;;;;15.07;10.25;;;10.50;99.90;;;;;;4976658;28;20694;-76
2023/05/13 01:18:09;;;;;;;15.07;10.50;;;10.50;99.90;;;;;;4992351;28;20045;-76
2023/05/13 01:20:38;;;;;;;13.38;10.07;;;10.50;99.90;;;;;;4991109;28;20092;-76
2023/05/13 01:23:05;;;;;;;12.43;9.73;;;10.50;99.90;;;;;;5002437;28;20076;-76
2023/05/13 01:25:31;;;;;;;12.82;10.38;;;10.50;99.90;;;;;;4989623;28;20565;-76
2023/05/13 01:27:57;;;;;;;12.68;9.93;;;10.50;99.90;;;;;;4980090;28;20034;-76
2023/05/13 01:30:23;;;;;;;15.07;10.13;;;10.40;99.90;;;;;;4974752;28;20513;-76
2023/05/13 01:32:50;;;;;;;10.27;9.18;;;10.40;99.90;;;;;;5000130;28;20667;-76
2023/05/13 01:35:17;;;;;;;16.55;10.65;;;10.40;99.90;;;;;;5002916;28;20053;-76
2023/05/13 01:37:43;;;;;;;13.90;10.25;;;10.40;99.90;;;;;;4999853;28;20029;-76
2023/05/13 01:40:09;;;;;;;12.75;9.68;;;10.40;99.90;;;;;;4997700;28;20033;-76
2023/05/13 01:42:35;;;;;;;14.02;10.38;;;10.30;99.90;;;;;;5004305;28;20045;-76
2023/05/13 01:45:02;;;;;;;13.57;9.93;;;10.30;99.90;;;;;;4988449;28;20053;-76
2023/05/13 01:47:28;;;;;;;12.70;9.93;;;10.30;99.90;;;;;;5001694;28;20038;-76
2023/05/13 01:49:53;;;;;;;11.82;9.35;;;10.30;99.90;;;;;;5007635;28;20041;-76
2023/05/13 01:52:19;;;;;;;12.68;9.52;;;10.30;99.90;;;;;;4969496;28;20050;-78
2023/05/13 01:54:45;;;;;;;12.45;9.35;;;10.20;99.90;;;;;;4971476;28;20034;-78
2023/05/13 01:57:11;;;;;;;13.48;9.43;;;10.20;99.90;;;;;;4990084;28;20053;-77
2023/05/13 01:59:36;;;;;;;14.10;10.30;;;10.20;99.90;;;;;;4969809;28;20040;-77
2023/05/13 02:02:02;;;;;;;14.75;10.23;;;10.20;99.90;;;;;;4994713;28;20129;-77
2023/05/13 02:04:28;;;;;;;14.02;9.98;;;10.20;99.90;;;;;;4974421;28;20190;-77
2023/05/13 02:06:54;;;;;;;13.88;9.20;;;10.20;99.90;;;;;;4971377;28;20584;-77
2023/05/13 02:09:20;;;;;;;18.27;10.00;;;10.20;99.90;;;;;;5009707;28;20046;-77
2023/05/13 02:11:45;;;;;;;14.00;9.73;;;10.20;99.90;;;;;;4982892;28;20164;-77
2023/05/13 02:14:11;;;;;;;12.05;9.38;;;10.10;99.90;;;;;;4989240;28;20482;-77
2023/05/13 02:16:37;;;;;;;14.65;11.00;;;10.10;99.90;;;;;;4967242;28;20029;-78
2023/05/13 02:19:03;;;;;;;13.63;10.43;;;10.10;99.90;;;;;;4999139;28;20037;-77
2023/05/13 02:21:28;;;;;;;15.20;9.32;;;10.10;99.90;;;;;;4979597;28;20030;-77
2023/05/13 02:23:54;;;;;;;17.45;9.15;;;10.00;99.90;;;;;;4989424;28;20061;-77
2023/05/13 02:26:21;;;;;;;11.52;9.35;;;10.00;99.90;;;;;;4996597;28;20037;-77
2023/05/13 02:28:46;;;;;;;12.13;9.65;;;10.00;99.90;;;;;;5025689;28;20038;-77
2023/05/13 02:31:12;;;;;;;13.20;10.43;;;10.00;99.90;;;;;;5002695;28;20057;-77
2023/05/13 02:33:38;;;;;;;13.77;9.88;;;10.00;99.90;;;;;;5006604;28;20053;-77
2023/05/13 02:36:04;;;;;;;15.07;10.40;;;10.00;99.90;;;;;;5004006;28;20037;-77
2023/05/13 02:38:29;;;;;;;13.68;9.82;;;10.00;99.90;;;;;;4987162;28;20546;-77
2023/05/13 02:40:55;;;;;;;13.00;10.00;;;10.00;99.90;;;;;;5008119;28;20478;-77
2023/05/13 02:43:22;;;;;;;16.63;10.95;;;10.00;99.90;;;;;;4980337;28;20054;-76
2023/05/13 02:45:48;;;;;;;11.30;10.00;;;9.90;99.90;;;;;;5001184;28;20571;-76
2023/05/13 02:48:14;;;;;;;15.90;9.85;;;9.90;99.90;;;;;;4990527;28;20038;-77
2023/05/13 02:50:40;;;;;;;11.57;9.70;;;9.90;99.90;;;;;;4993515;28;20065;-77
2023/05/13 02:53:06;;;;;;;13.30;10.52;;;9.90;99.90;;;;;;4995210;28;20068;-77
2023/05/13 02:55:31;;;;;;;14.23;10.73;;;9.90;99.90;;;;;;4978992;28;20048;-77
2023/05/13 02:57:57;;;;;;;11.82;9.82;;;9.80;99.90;;;;;;5010220;28;20040;-77
2023/05/13 03:00:23;;;;;;;13.65;10.50;;;9.80;99.90;;;;;;5011619;28;20049;-76
2023/05/13 03:02:48;;;;;;;11.90;10.25;;;9.80;99.90;;;;;;5007364;28;20041;-76
2023/05/13 03:05:14;;;;;;;14.35;10.48;;;9.80;99.90;;;;;;4994345;28;20040;-76
2023/05/13 03:07:40;;;;;;;16.50;10.90;;;9.80;99.90;;;;;;5009711;28;20520;-76
2023/05/13 03:10:06;;;;;;;14.43;10.75;;;9.80;99.90;;;;;;5009909;28;20060;-76
2023/05/13 03:12:32;;;;;;;16.13;11.25;;;9.70;99.90;;;;;;5008604;28;20069;-76
2023/05/13 03:14:58;;;;;;;14.70;10.55;;;9.70;99.90;;;;;;4992715;28;20061;-76
2023/05/13 03:17:24;;;;;;;13.25;10.95;;;9.70;99.90;;;;;;5008500;28;20029;-76
2023/05/13 03:19:50;;;;;;;13.48;10.52;;;9.70;99.90;;;;;;4992628;28;20034;-76
2023/05/13 03:22:16;;;;;;;12.90;9.95;;;9.60;99.90;;;;;;5009048;28;20056;-76
2023/05/13 03:24:43;;;;;;;19.30;10.25;;;9.60;99.90;;;;;;5008530;28;20037;-76
2023/05/13 03:27:09;;;;;;;12.50;10.27;;;9.60;99.90;;;;;;5008886;28;20117;-76
2023/05/13 03:29:34;;;;;;;17.70;10.93;;;9.60;99.90;;;;;;4993033;28;20120;-76
2023/05/13 03:32:00;;;;;;;27.75;11.57;;;9.50;99.90;;;;;;4994471;28;20100;-76
2023/05/13 03:34:26;;;;;;;14.85;12.05;;;9.50;99.90;;;;;;5007677;28;20069;-76
2023/05/13 03:36:51;;;;;;;16.52;12.02;;;9.50;99.90;;;;;;4983396;28;20459;-76
2023/05/13 03:39:17;;;;;;;14.70;11.48;;;9.50;99.90;;;;;;5007889;28;20084;-76
2023/05/13 03:41:44;;;;;;;15.85;11.85;;;9.50;99.90;;;;;;4963435;28;20041;-76
2023/05/13 03:44:10;;;;;;;21.30;11.27;;;9.40;99.90;;;;;;4984227;28;21424;-76
2023/05/13 03:46:36;;;;;;;14.52;12.32;;;9.40;99.90;;;;;;4984709;28;20053;-76
2023/05/13 03:49:02;;;;;;;15.38;12.05;;;9.40;99.90;;;;;;4987591;28;20129;-76
2023/05/13 03:51:27;;;;;;;18.23;12.82;;;9.40;99.90;;;;;;4998404;28;20084;-76
2023/05/13 03:53:53;;;;;;;16.15;12.40;;;9.40;99.90;;;;;;4980575;28;20513;-76
2023/05/13 03:56:20;;;;;;;16.02;11.35;;;9.40;99.90;;;;;;4986436;28;20123;-76
2023/05/13 03:58:46;;;;;;;16.45;12.60;;;9.40;99.90;;;;;;4997792;28;20046;-76
2023/05/13 04:01:11;;;;;;;17.63;13.77;;;9.40;99.90;;;;;;4999507;28;20045;-76
2023/05/13 04:03:37;;;;;;;15.55;11.75;;;9.40;99.90;;;;;;4990031;28;20095;-76
2023/05/13 04:06:03;;;;;;;14.68;11.93;;;9.40;99.90;;;;;;4983657;28;20041;-76
2023/05/13 04:08:28;;;;;;;16.73;12.77;;;9.40;99.90;;;;;;4976097;28;20059;-76
2023/05/13 04:10:55;;;;;;;16.60;12.20;;;9.40;99.90;;;;;;4988298;28;20050;-76
2023/05/13 04:13:21;;;;;;;18.13;13.27;;;9.40;99.90;;;;;;4998122;28;20046;-76
2023/05/13 04:15:47;;;;;;;15.77;12.10;;;9.40;99.90;;;;;;4991592;28;20037;-76
2023/05/13 04:18:13;;;;;;;16.30;12.55;;;9.40;99.90;;;;;;4982231;28;20044;-76
2023/05/13 04:20:39;;;;;;;18.52;12.90;;;9.40;99.90;;;;;;5004298;28;20038;-76
2023/05/13 04:23:05;;;;;;;17.27;13.13;;;9.40;99.90;;;;;;4985992;28;20033;-76
2023/05/13 04:25:31;;;;;;;16.73;13.07;;;9.40;99.90;;;;;;5002818;28;20050;-76
2023/05/13 04:27:57;;;;;;;18.35;12.90;;;9.40;99.90;;;;;;4989272;28;20120;-76
2023/05/13 04:30:22;;;;;;;17.75;13.50;;;9.40;99.90;;;;;;5003257;28;20042;-76
2023/05/13 04:32:48;;;;;;;16.48;13.20;;;9.40;99.90;;;;;;4987939;28;20437;-76
2023/05/13 04:35:14;;;;;;;17.15;13.68;;;9.40;99.90;;;;;;4991967;28;20036;-77
2023/05/13 04:37:39;;;;;;;19.00;13.23;;;9.40;99.90;;;;;;4984815;28;20605;-76
2023/05/13 04:40:07;;;;;;;18.25;14.52;;;9.40;99.90;;;;;;4988539;28;20073;-76
2023/05/13 04:42:33;;;;;;;21.48;14.02;;;9.40;99.90;;;;;;4987371;28;20139;-77
2023/05/13 04:44:58;;;;;;;20.30;14.35;;;9.40;99.90;;;;;;4992614;28;20112;-77
2023/05/13 04:47:24;;;;;;;20.42;14.90;;;9.50;99.90;;;;;;4991050;28;20550;-77
2023/05/13 04:49:49;;;;;;;18.92;13.40;;;9.50;99.90;;;;;;5008431;28;20037;-77
2023/05/13 04:52:15;;;;;;;18.88;14.45;;;9.50;99.90;;;;;;4994879;28;20091;-77
2023/05/13 04:54:41;;;;;;;19.50;15.30;;;9.50;99.90;;;;;;5001396;28;20494;-77
2023/05/13 04:57:07;;;;;;;23.02;15.27;;;9.50;99.90;;;;;;4983823;28;20085;-76
2023/05/13 04:59:33;;;;;;;18.67;15.15;;;9.60;99.90;;;;;;5012104;28;20060;-78
2023/05/13 05:01:59;;;;;;;22.55;15.80;;;9.60;99.90;;;;;;4993674;28;20040;-78
2023/05/13 05:04:26;;;;;;;22.83;17.52;;;9.60;99.90;;;;;;4986457;28;20030;-78
2023/05/13 05:06:52;;;;;;;21.48;16.38;;;9.60;99.90;;;;;;5000106;28;20093;-77
2023/05/13 05:09:18;;;;;;;25.45;17.33;;;9.70;99.90;;;;;;5024828;28;20625;-78
2023/05/13 05:11:43;;;;;;;27.77;18.33;;;9.70;99.90;;;;;;4994282;28;20033;-78
2023/05/13 05:14:09;;;;;;;27.20;19.25;;;9.70;99.90;;;;;;4998945;28;20034;-78
2023/05/13 05:16:35;;;;;;;26.52;20.08;;;9.80;99.90;;;;;;4996194;28;20049;-78
2023/05/13 05:19:00;;;;;;;29.08;20.27;;;9.90;99.90;;;;;;4998142;28;20040;-78
2023/05/13 05:21:26;;;;;;;29.35;20.42;;;9.90;99.90;;;;;;4996533;28;20049;-78
2023/05/13 05:23:52;;;;;;;29.25;20.73;;;10.00;99.90;;;;;;5011746;28;20030;-78
2023/05/13 05:26:17;;;;;;;27.55;19.52;;;10.10;99.90;;;;;;5012554;28;20406;-78
2023/05/13 05:28:44;;;;;;;26.40;18.75;;;10.20;99.90;;;;;;4980217;28;20045;-78
2023/05/13 05:31:10;;;;;;;26.05;19.50;;;10.30;99.90;;;;;;5008591;28;20088;-78
2023/05/13 05:33:36;;;;;;;28.52;19.63;;;10.40;99.90;;;;;;5009603;28;20234;-78
2023/05/13 05:36:02;;;;;;;30.13;19.65;;;10.50;99.90;;;;;;4991321;28;20045;-77
2023/05/13 05:38:28;;;;;;;29.60;20.98;;;10.50;99.90;;;;;;4982872;28;20048;-78
2023/05/13 05:40:54;;;;;;;25.60;18.42;;;10.60;99.90;;;;;;5005584;28;20501;-78
2023/05/13 05:43:20;;;;;;;23.27;18.40;;;10.70;99.90;;;;;;4991270;28;20108;-78
2023/05/13 05:45:46;;;;;;;25.08;17.10;;;10.80;99.90;;;;;;4996809;28;20497;-78
2023/05/13 05:48:11;;;;;;;20.10;16.52;;;10.90;99.90;;;;;;4994620;28;20064;-78
2023/05/13 05:50:37;;;;;;;31.98;17.55;;;11.00;99.90;;;;;;5012607;28;20124;-78
2023/05/13 05:53:03;;;;;;;27.67;17.77;;;11.10;99.90;;;;;;4992705;28;20041;-78
2023/05/13 05:55:30;;;;;;;22.33;16.80;;;11.10;99.90;;;;;;5001548;28;20488;-78
2023/05/13 05:57:57;;;;;;;23.27;17.65;;;11.30;99.90;;;;;;4985869;28;20041;-78
2023/05/13 06:00:23;;;;;;;24.58;17.08;;;11.30;99.90;;;;;;4996739;28;20038;-78
2023/05/13 06:02:49;;;;;;;20.00;16.65;;;11.30;99.90;;;;;;5009558;28;20099;-80
2023/05/13 06:05:15;;;;;;;22.52;16.13;;;11.30;99.90;;;;;;4993264;28;20041;-77
2023/05/13 06:07:41;;;;;;;20.95;16.67;;;11.40;99.90;;;;;;5008973;28;21806;-78
2023/05/13 06:10:07;;;;;;;19.40;16.65;;;11.40;99.90;;;;;;4997463;28;20091;-78
2023/05/13 06:12:33;;;;;;;20.48;15.73;;;11.50;99.90;;;;;;5009361;28;20081;-78
2023/05/13 06:15:00;;;;;;;24.38;15.02;;;11.60;99.90;;;;;;4998601;28;20087;-78
2023/05/13 06:17:25;;;;;;;20.38;16.50;;;11.70;99.90;;;;;;4994811;28;20532;-78
2023/05/13 06:19:51;;;;;;;22.35;15.95;;;11.80;99.90;;;;;;4966251;28;20033;-78
2023/05/13 06:22:17;;;;;;;20.45;16.33;;;11.90;99.90;;;;;;5004345;28;20410;-78
2023/05/13 06:24:43;;;;;;;18.55;15.10;;;12.00;99.90;;;;;;4992947;28;20124;-78
2023/05/13 06:27:12;;;;;;;21.08;15.32;;;12.10;99.90;;;;;;4977844;28;20113;-78
2023/05/13 06:29:38;;;;;;;19.75;14.63;;;12.20;99.90;;;;;;5008978;28;20728;-78
2023/05/13 06:32:04;;;;;;;17.67;14.30;;;12.20;99.90;;;;;;4993891;28;20494;-78
2023/05/13 06:34:30;;;;;;;18.38;13.88;;;12.30;99.90;;;;;;4992797;28;20042;-77
2023/05/13 06:36:55;;;;;;;20.60;15.02;;;12.30;99.90;;;;;;4997286;28;20036;-78
2023/05/13 06:39:21;;;;;;;17.85;14.43;;;12.40;99.90;;;;;;4975143;28;20066;-78
2023/05/13 06:41:47;;;;;;;19.90;14.18;;;12.50;99.90;;;;;;4974033;28;20042;-77
2023/05/13 06:44:12;;;;;;;19.10;14.13;;;12.60;99.90;;;;;;4993949;28;20068;-77
2023/05/13 06:46:38;;;;;;;20.75;14.48;;;12.70;99.90;;;;;;4987861;28;20118;-78
2023/05/13 06:49:04;;;;;;;22.17;15.27;;;12.80;99.90;;;;;;5007129;28;20484;-78
2023/05/13 06:51:31;;;;;;;18.15;13.43;;;13.00;99.90;;;;;;4996434;28;20111;-77
2023/05/13 06:53:57;;;;;;;18.35;14.15;;;13.10;99.90;;;;;;5007078;28;20084;-80
2023/05/13 06:56:23;;;;;;;18.42;13.43;;;13.20;99.90;;;;;;5018344;28;20069;-78
2023/05/13 06:58:49;;;;;;;19.42;13.98;;;13.30;99.90;;;;;;4983637;28;20117;-78
2023/05/13 07:01:16;;;;;;;19.63;14.75;;;13.40;99.90;;;;;;4990097;28;20037;-78
2023/05/13 07:03:42;;;;;;;16.92;13.27;;;13.50;99.90;;;;;;5012602;28;20117;-77
2023/05/13 07:06:08;;;;;;;24.60;14.60;;;13.60;99.90;;;;;;5018821;28;20124;-78
2023/05/13 07:08:34;;;;;;;19.33;13.02;;;13.80;99.90;;;;;;4995798;28;20120;-79
2023/05/13 07:10:59;;;;;;;15.95;12.60;;;14.20;99.90;;;;;;4972650;28;20473;-78
2023/05/13 07:13:25;;;;;;;15.32;12.85;;;15.00;99.90;;;;;;4990238;28;20075;-78
2023/05/13 07:15:51;;;;;;;15.68;11.90;;;16.00;99.90;;;;;;4989043;28;20690;-78
2023/05/13 07:18:17;;;;;;;18.55;11.30;;;16.70;99.90;;;;;;4988275;28;20113;-76
2023/05/13 07:20:43;;;;;;;14.65;11.00;;;17.30;99.90;;;;;;4972422;28;20044;-77
2023/05/13 07:23:08;;;;;;;16.63;10.48;;;18.00;99.90;;;;;;5002560;28;20127;-77
2023/05/13 07:25:34;;;;;;;11.90;10.60;;;18.50;99.90;;;;;;4986944;28;20488;-78
2023/05/13 07:28:00;;;;;;;13.20;11.38;;;18.90;99.90;;;;;;5012742;28;20041;-77
2023/05/13 07:30:26;;;;;;;15.40;10.73;;;19.30;99.90;;;;;;4959825;28;20041;-77
2023/05/13 07:32:51;;;;;;;18.13;11.85;;;19.50;99.90;;;;;;5002812;28;20037;-77
2023/05/13 07:35:17;;;;;;;13.52;11.10;;;19.80;99.90;;;;;;4986908;28;20387;-77
2023/05/13 07:37:43;;;;;;;13.93;11.02;;;19.90;99.90;;;;;;5004655;28;20037;-76
2023/05/13 07:40:09;;;;;;;16.48;11.20;;;19.80;99.90;;;;;;5021644;28;20487;-76
2023/05/13 07:42:36;;;;;;;12.13;9.75;;;19.90;99.90;;;;;;4985942;28;20053;-76
2023/05/13 07:45:03;;;;;;;15.73;10.82;;;20.10;99.90;;;;;;4999244;28;20081;-76
2023/05/13 07:47:30;;;;;;;14.80;11.32;;;20.00;99.90;;;;;;4976071;28;20056;-76
2023/05/13 07:49:57;;;;;;;12.60;10.27;;;19.90;99.90;;;;;;4981400;28;20037;-76
2023/05/13 07:52:22;;;;;;;12.38;10.18;;;20.10;99.90;;;;;;4961963;28;20038;-77
2023/05/13 07:54:48;;;;;;;13.05;10.60;;;20.60;99.90;;;;;;4931444;28;20049;-76
2023/05/13 07:57:15;;;;;;;13.13;10.25;;;21.20;99.90;;;;;;4962166;28;20501;-76
2023/05/13 07:59:40;;;;;;;12.80;9.80;;;21.20;98.70;;;;;;4977947;28;20053;-76
2023/05/13 08:02:06;;;;;;;14.55;10.50;;;21.40;99.70;;;;;;4982065;28;20525;-76
2023/05/13 08:04:32;;;;;;;12.15;10.38;;;21.80;99.30;;;;;;5000639;28;20038;-76
2023/05/13 08:07:00;;;;;;;17.35;10.48;;;21.80;98.70;;;;;;4985384;28;20033;-76
2023/05/13 08:09:26;;;;;;;15.15;10.05;;;22.10;98.90;;;;;;5000059;28;20510;-76
2023/05/13 08:11:53;;;;;;;12.90;11.02;;;22.30;98.00;;;;;;5002640;28;20065;-76
2023/05/13 08:14:19;;;;;;;14.23;10.68;;;22.20;98.40;;;;;;4984912;28;20674;-76
2023/05/13 08:16:44;;;;;;;13.23;10.10;;;22.20;97.90;;;;;;4985421;28;20044;-76
2023/05/13 08:19:10;;;;;;;12.70;11.40;;;22.10;97.50;;;;;;4992796;28;20030;-76
2023/05/13 08:21:36;;;;;;;15.63;10.30;;;22.70;97.40;;;;;;4989935;28;20506;-76
2023/05/13 08:24:01;;;;;;;13.98;9.90;;;22.30;96.80;;;;;;4980221;28;20049;-76
2023/05/13 08:26:27;;;;;;;11.88;9.70;;;22.80;97.20;;;;;;4982814;28;20120;-76
2023/05/13 08:28:53;;;;;;;12.18;10.45;;;23.10;96.80;;;;;;4971990;28;20534;-76
2023/05/13 08:31:19;;;;;;;12.13;10.07;;;23.30;96.60;;;;;;4986125;28;20041;-76
2023/05/13 08:33:46;;;;;;;13.45;9.95;;;23.10;95.40;;;;;;4989190;28;20041;-76
2023/05/13 08:36:12;;;;;;;12.13;9.60;;;22.90;95.70;;;;;;4983763;28;20126;-77
2023/05/13 08:38:37;;;;;;;20.33;10.07;;;22.80;95.50;;;;;;4983556;28;20097;-76
2023/05/13 08:41:05;;;;;;;15.57;9.63;;;22.90;95.30;;;;;;4994064;28;20117;-76
2023/05/13 08:43:32;;;;;;;12.35;9.98;;;22.60;95.80;;;;;;5028297;28;20137;-76
2023/05/13 08:46:02;;;;;;;15.60;9.45;;;22.90;95.80;;;;;;4994749;28;20603;-76
2023/05/13 08:48:28;;;;;;;10.93;9.52;;;22.90;96.00;;;;;;4995778;28;20044;-76
2023/05/13 08:50:55;;;;;;;10.90;9.10;;;23.00;96.00;;;;;;4996408;28;20493;-76
2023/05/13 08:53:23;;;;;;;10.75;9.18;;;23.50;95.10;;;;;;4995042;28;20034;-76
2023/05/13 08:55:50;;;;;;;13.98;10.07;;;23.30;95.40;;;;;;4979537;28;20077;-76
2023/05/13 08:58:15;;;;;;;12.23;8.80;;;23.00;95.70;;;;;;4978674;28;20033;-76
2023/05/13 09:00:41;;;;;;;17.65;9.90;;;22.80;95.30;;;;;;4979399;28;20069;-76
2023/05/13 09:03:07;;;;;;;13.63;8.73;;;22.90;95.00;;;;;;4994876;28;20132;-76
2023/05/13 09:05:35;;;;;;;11.65;9.20;;;22.70;95.30;;;;;;4992152;28;20107;-76
2023/05/13 09:08:07;;;;;;;11.43;9.15;;;23.00;95.80;;;;;;4963489;28;20111;-76
2023/05/13 09:10:33;;;;;;;13.40;9.52;;;23.00;95.30;;;;;;4994800;28;20069;-76
2023/05/13 09:13:00;;;;;;;14.45;8.50;;;23.00;95.80;;;;;;4994378;28;20073;-76
2023/05/13 09:15:27;;;;;;;12.70;8.40;;;23.10;95.30;;;;;;5011280;28;20512;-76
2023/05/13 09:17:54;;;;;;;11.23;8.68;;;23.40;95.60;;;;;;4995765;28;20268;-76
2023/05/13 09:20:21;;;;;;;14.65;8.10;;;23.60;95.40;;;;;;4997565;28;20038;-76
2023/05/13 09:23:02;;;;;;;10.85;7.78;;;23.90;93.50;;;;;;5010826;28;20038;-76
2023/05/13 09:25:29;;;;;;;8.93;7.97;;;23.70;94.80;;;;;;4989867;28;20068;-76
2023/05/13 09:28:00;;;;;;;12.00;8.27;;;23.40;94.00;;;;;;5010494;28;20046;-76
2023/05/13 09:30:33;;;;;;;13.65;7.00;;;23.20;94.20;;;;;;4994519;28;20037;-76
2023/05/13 09:33:10;;;;;;;9.50;7.63;;;23.40;94.40;;;;;;5010936;28;20517;-76
2023/05/13 09:35:42;;;;;;;14.07;8.40;;;23.20;94.00;;;;;;5011240;28;20088;-76
2023/05/13 09:38:13;;;;;;;12.13;8.55;;;23.10;95.20;;;;;;4993865;28;20030;-76
2023/05/13 09:40:40;;;;;;;11.32;7.28;;;23.00;95.20;;;;;;4999336;28;20116;-76
2023/05/13 09:43:07;;;;;;;11.57;7.68;;;23.10;95.10;;;;;;5001204;28;20046;-76
2023/05/13 09:45:35;;;;;;;7.97;6.85;;;23.00;94.90;;;;;;4989604;28;20046;-76
2023/05/13 09:48:01;;;;;;;10.88;6.88;;;23.10;94.60;;;;;;4994072;28;20045;-76
2023/05/13 09:50:27;;;;;;;8.32;6.93;;;23.10;94.30;;;;;;4985025;28;20129;-76
2023/05/13 09:52:53;;;;;;;8.18;6.28;;;23.00;94.40;;;;;;5021992;28;20097;-76
2023/05/13 09:55:18;;;;;;;8.25;6.40;;;23.10;94.30;;;;;;4973913;28;20073;-76
2023/05/13 09:57:45;;;;;;;9.27;6.55;;;23.20;93.70;;;;;;4994495;28;20422;-76
2023/05/13 10:00:11;;;;;;;9.57;7.18;;;23.30;94.20;;;;;;4989264;28;20046;-76
2023/05/13 10:02:38;;;;;;;11.18;6.82;;;23.30;94.90;;;;;;4972249;28;20096;-76
2023/05/13 10:05:07;;;;;;;13.23;7.40;;;23.20;94.30;;;;;;5007807;28;20053;-75
2023/05/13 10:07:34;;;;;;;8.35;7.30;;;23.10;94.60;;;;;;4993721;28;20092;-76
2023/05/13 10:10:05;;;;;;;10.35;6.40;;;23.30;95.00;;;;;;5010636;28;20042;-76
2023/05/13 10:12:35;;;;;;;10.15;6.32;;;23.40;92.90;;;;;;4978259;28;20080;-76
2023/05/13 10:15:01;;;;;;;7.60;4.68;;;23.60;93.40;;;;;;4997935;28;20041;-76
2023/05/13 10:17:29;;;;;;;8.70;4.75;;;23.60;92.10;;;;;;5024123;28;20038;-76
2023/05/13 10:19:55;;;;;;;6.38;4.70;;;23.70;91.50;;;;;;4994645;28;20116;-76
2023/05/13 10:22:29;;;;;;;5.82;4.63;;;23.80;91.20;;;;;;5009572;28;20041;-76
2023/05/13 10:24:57;;;;;;;10.65;4.72;;;23.80;91.60;;;;;;4975800;28;20041;-76
2023/05/13 10:27:27;;;;;;;6.72;5.43;;;23.70;90.70;;;;;;4977522;28;20048;-76
2023/05/13 10:29:54;;;;;;;8.23;4.95;;;23.70;91.40;;;;;;4992016;28;20054;-76
2023/05/13 10:32:25;;;;;;;9.65;4.53;;;23.70;91.10;;;;;;5009111;28;20046;-76
2023/05/13 10:34:57;;;;;;;8.73;4.45;;;23.70;90.40;;;;;;4977776;28;20036;-76
2023/05/13 10:37:33;;;;;;;7.68;4.65;;;23.70;91.30;;;;;;4979883;28;20042;-76
2023/05/13 10:40:27;;;;;;;7.45;4.30;;;23.70;90.80;;;;;;5019727;28;20065;-76
2023/05/13 10:43:14;;;;;;;5.60;4.28;;;23.70;90.80;;;;;;5030236;28;20052;-76
2023/05/13 10:46:09;;;;;;;7.45;4.82;;;23.80;89.10;;;;;;4997340;28;20049;-76
2023/05/13 10:48:46;;;;;;;7.82;3.95;;;23.90;88.20;;;;;;5022819;28;20338;-76
2023/05/13 10:51:16;;;;;;;8.27;4.00;;;24.20;88.50;;;;;;5001963;28;20053;-76
2023/05/13 10:53:49;;;;;;;7.85;4.60;;;24.60;89.90;;;;;;4994935;28;20125;-75
2023/05/13 10:56:19;;;;;;;10.80;4.63;;;24.70;88.30;;;;;;4975288;28;20152;-68
2023/05/13 10:58:58;;;;;;;5.13;4.18;;;24.80;88.40;;;;;;5007623;28;20042;-68
2023/05/13 11:01:29;;;;;;;9.00;4.30;;;24.80;87.70;;;;;;5005857;28;20061;-68
2023/05/13 11:04:03;;;;;;;11.05;4.03;;;24.80;87.40;;;;;;5015691;28;20096;-68
2023/05/13 11:06:33;;;;;;;5.63;4.30;;;24.80;85.70;;;;;;5014102;28;20038;-68
2023/05/13 11:08:59;;;;;;;5.82;3.97;;;24.80;86.30;;;;;;5005543;28;20037;-68
2023/05/13 11:11:29;;;;;;;9.88;4.28;;;24.80;83.90;;;;;;4988601;28;20041;-68
2023/05/13 11:14:05;;;;;;;9.60;4.07;;;24.90;86.80;;;;;;4987862;28;20045;-68
2023/05/13 11:16:32;;;;;;;11.25;4.55;;;24.80;82.90;;;;;;5007283;28;20686;-67
2023/05/13 11:18:58;;;;;;;10.00;4.10;;;24.40;83.80;;;;;;4989327;28;20053;-68
2023/05/13 11:21:35;;;;;;;6.70;3.33;;;24.50;84.70;;;;;;4997218;28;20479;-69
2023/05/13 11:24:04;;;;;;;7.13;3.78;;;24.60;85.00;;;;;;4981164;28;20037;-69
2023/05/13 11:26:55;;;;;;;11.30;4.53;;;24.70;85.00;;;;;;4998099;28;20545;-70
2023/05/13 11:29:32;;;;;;;6.80;4.07;;;24.70;83.80;;;;;;5001464;28;20509;-68
2023/05/13 11:31:58;;;;;;;14.93;4.68;;;24.80;80.80;;;;;;4978698;28;20104;-68
2023/05/13 11:34:25;;;;;;;4.28;3.78;;;24.80;83.50;;;;;;5001675;28;20038;-68
2023/05/13 11:36:55;;;;;;;6.22;3.55;;;25.00;82.40;;;;;;4972290;28;20033;-70
2023/05/13 11:39:22;;;;;;;7.68;3.38;;;25.00;80.10;;;;;;5004833;28;20046;-68
2023/05/13 11:41:52;;;;;;;7.63;3.33;;;24.90;77.50;;;;;;5014440;28;20643;-72
2023/05/13 11:44:20;;;;;;;8.13;4.10;;;24.90;76.60;;;;;;5006512;28;20081;-71
2023/05/13 11:47:00;;;;;;;13.18;3.90;;;25.00;79.60;;;;;;5007237;28;20053;-70
2023/05/13 11:49:45;;;;;;;7.60;3.58;;;25.20;77.60;;;;;;5015199;28;20044;-70
2023/05/13 11:52:18;;;;;;;5.38;3.20;;;25.20;79.00;;;;;;4997086;28;20541;-71
2023/05/13 11:54:53;;;;;;;7.85;3.38;;;25.10;72.40;;;;;;4992523;28;20029;-70
2023/05/13 11:57:22;;;;;;;6.68;3.85;;;24.80;71.10;;;;;;5006637;28;20164;-69
2023/05/13 11:59:58;;;;;;;14.40;3.53;;;24.90;76.90;;;;;;5024845;28;20048;-70
2023/05/13 12:02:27;;;;;;;7.07;3.40;;;24.90;73.60;;;;;;5006359;28;20033;-71
2023/05/13 12:04:52;;;;;;;4.53;3.25;;;24.80;70.10;;;;;;5023159;28;20125;-71
2023/05/13 12:07:20;;;;;;;6.45;3.65;;;24.40;70.10;;;;;;5023395;28;20124;-71
2023/05/13 12:09:47;;;;;;;9.90;3.38;;;24.40;72.50;;;;;;5007262;28;20048;-70
2023/05/13 12:12:13;;;;;;;6.05;3.30;;;24.40;72.50;;;;;;5008181;28;20068;-70
2023/05/13 12:14:39;;;;;;;6.25;3.40;;;24.40;71.10;;;;;;5025085;28;20087;-71
2023/05/13 12:17:05;;;;;;;5.75;3.78;;;24.50;70.30;;;;;;5005911;28;20036;-71
2023/05/13 12:19:30;;;;;;;4.75;3.38;;;24.30;71.10;;;;;;4990450;28;20045;-68
2023/05/13 12:21:58;;;;;;;4.55;3.00;;;24.10;71.00;;;;;;5026784;28;20033;-69
2023/05/13 12:24:24;;;;;;;5.82;3.53;;;24.30;72.80;;;;;;5011563;28;20116;-69
2023/05/13 12:26:49;;;;;;;4.88;3.22;;;24.50;69.10;;;;;;5010509;28;20116;-69
2023/05/13 12:29:15;;;;;;;5.97;2.85;;;24.60;70.80;;;;;;5005493;28;20042;-69
2023/05/13 12:31:42;;;;;;;10.15;2.92;;;24.80;71.40;;;;;;4990961;28;20048;-70
2023/05/13 12:34:09;;;;;;;5.07;3.25;;;25.00;69.00;;;;;;4976206;28;20037;-70
2023/05/13 12:36:38;;;;;;;7.32;3.40;;;25.30;69.80;;;;;;4988531;28;20395;-68